Portada
METAR-TAF:

METAR-TAF

Aeroports :

Aeroport de Sabadell

Sabadell, Espanya

latitud: 41-31N, longitud: 002-06E, altitud: 250 m

Observació

L'informe es va fer fa 11 minuts, a les 08:00 UTC
Vent 1 kt del Oest
Temperatura 26°C
Humitat 61%
Pressió 1018 hPa
Visibilitat 10 km o més
sense núvols per sota de 1500 mi sense presència de cumulonimbus.

METAR: LELL 080800Z 27001KT CAVOK 26/18 Q1018

Hora: 10:11 (08:11 UTC)

Pronòstic

L'informe es va fer fa 6 hores i 11 minuts, a les 02:00 UTC
Pronòstic vàlid del 08 a les 03 UTC al 09 a les 03 UTC
Vent 3 kt amb direcció variable
Visibilitat 10 km o més
sense núvols per sota de 1500 mi sense presència de cumulonimbus.
Evolucionant progressivament
l' 08 a les 10 UTC al 08 a les 12 UTC
Vent 10 kt del Sud
Evolucionant progressivament
l' 08 a les 18 UTC al 08 a les 20 UTC
Vent 3 kt amb direcció variable

TAF: LELL 080200Z 0803/0903 VRB03KT CAVOK TX31/0814Z TN20/0805Z BECMG 0810/0812 18010KT BECMG 0818/0820 VRB03KT

Observacions i pronòstics meteorològics de més de 4000 aeroports (METAR i TAF).

Les estacions disponibles són els punts grocs i vermells al mapa.

Posi el ratolí al punt desitjat per veure el nom de l'estació.

Feu clic per veure les observacions i els pronòstics meteorològics.

Per canviar el mapa: feu clic els botons verds amb una creu de color negre per apropar; al botó verd amb un guió per allunyar la imatge; o en les fletxes verdes per a mapes adjacents.


METAR-TAF: